Terminal Aerodrome Forecast
Issued by NWS Wilmington, OH

Current Version | Previous Version | Text Only | Print | Product List | Glossary Off
Versions: 1 2 3 4 5 6 7 8 9 10 11 12 13 14 15 16 17 18 19 20 21 22 23 24 25 26 27 28 29

336
FTUS41 KILN 280541
TAFILN
TAF
KILN 280541Z 2806/2906 07007KT 3SM -SHRA BR BKN015 OVC022
     FM280800 08007KT 6SM BR VCSH BKN040 OVC080
     FM281000 08006KT 4SM BR OVC007
     FM281600 VRB04KT P6SM OVC012
     FM281800 26006KT P6SM VCTS BKN040CB
     FM282200 30007KT P6SM SCT050
     FM290400 36004KT P6SM OVC007=

USA.gov is the U.S. government's official web portal to all federal, state and local government web resources and services.